sensor_id;sensor_type;location;lat;lon;timestamp;P1;durP1;ratioP1;P2;durP2;ratioP2
2159;SDS011;1086;51.610;6.928;2022-09-11T00:02:03;14.18;;;7.72;;
2159;SDS011;1086;51.610;6.928;2022-09-11T00:04:28;13.75;;;7.97;;
2159;SDS011;1086;51.610;6.928;2022-09-11T00:06:54;15.70;;;7.93;;
2159;SDS011;1086;51.610;6.928;2022-09-11T00:09:19;11.90;;;7.47;;
2159;SDS011;1086;51.610;6.928;2022-09-11T00:11:44;12.70;;;7.93;;
2159;SDS011;1086;51.610;6.928;2022-09-11T00:14:12;13.07;;;8.10;;
2159;SDS011;1086;51.610;6.928;2022-09-11T00:16:39;13.73;;;7.88;;
2159;SDS011;1086;51.610;6.928;2022-09-11T00:19:06;12.75;;;8.30;;
2159;SDS011;1086;51.610;6.928;2022-09-11T00:21:32;11.90;;;7.93;;
2159;SDS011;1086;51.610;6.928;2022-09-11T00:23:58;13.63;;;7.93;;
2159;SDS011;1086;51.610;6.928;2022-09-11T00:26:23;11.55;;;7.75;;
2159;SDS011;1086;51.610;6.928;2022-09-11T00:28:49;10.25;;;6.97;;
2159;SDS011;1086;51.610;6.928;2022-09-11T00:31:18;12.15;;;7.20;;
2159;SDS011;1086;51.610;6.928;2022-09-11T00:33:43;12.30;;;7.70;;
2159;SDS011;1086;51.610;6.928;2022-09-11T00:36:13;14.23;;;7.60;;
2159;SDS011;1086;51.610;6.928;2022-09-11T00:38:39;13.30;;;8.23;;
2159;SDS011;1086;51.610;6.928;2022-09-11T00:41:06;13.93;;;7.80;;
2159;SDS011;1086;51.610;6.928;2022-09-11T00:46:15;13.80;;;8.25;;
2159;SDS011;1086;51.610;6.928;2022-09-11T00:48:41;19.40;;;8.50;;
2159;SDS011;1086;51.610;6.928;2022-09-11T00:51:08;13.60;;;8.65;;
2159;SDS011;1086;51.610;6.928;2022-09-11T00:53:35;14.00;;;8.25;;
2159;SDS011;1086;51.610;6.928;2022-09-11T00:56:02;13.77;;;9.02;;
2159;SDS011;1086;51.610;6.928;2022-09-11T00:58:30;17.80;;;9.13;;
2159;SDS011;1086;51.610;6.928;2022-09-11T01:00:56;15.93;;;9.18;;
2159;SDS011;1086;51.610;6.928;2022-09-11T01:03:23;14.73;;;9.30;;
2159;SDS011;1086;51.610;6.928;2022-09-11T01:05:49;15.50;;;9.23;;
2159;SDS011;1086;51.610;6.928;2022-09-11T01:08:16;13.80;;;9.18;;
2159;SDS011;1086;51.610;6.928;2022-09-11T01:13:14;16.88;;;9.70;;
2159;SDS011;1086;51.610;6.928;2022-09-11T01:15:45;15.75;;;9.50;;
2159;SDS011;1086;51.610;6.928;2022-09-11T01:18:47;15.43;;;9.52;;
2159;SDS011;1086;51.610;6.928;2022-09-11T01:28:54;16.67;;;11.05;;
2159;SDS011;1086;51.610;6.928;2022-09-11T01:31:23;15.55;;;9.90;;
2159;SDS011;1086;51.610;6.928;2022-09-11T01:33:51;16.73;;;10.15;;
2159;SDS011;1086;51.610;6.928;2022-09-11T01:36:26;17.95;;;9.70;;
2159;SDS011;1086;51.610;6.928;2022-09-11T01:38:54;19.42;;;10.70;;
2159;SDS011;1086;51.610;6.928;2022-09-11T01:41:26;15.52;;;9.65;;
2159;SDS011;1086;51.610;6.928;2022-09-11T01:46:46;18.23;;;10.88;;
2159;SDS011;1086;51.610;6.928;2022-09-11T01:49:15;21.30;;;10.25;;
2159;SDS011;1086;51.610;6.928;2022-09-11T01:51:42;18.75;;;10.38;;
2159;SDS011;1086;51.610;6.928;2022-09-11T01:54:09;17.25;;;10.70;;
2159;SDS011;1086;51.610;6.928;2022-09-11T01:56:36;18.52;;;10.55;;
2159;SDS011;1086;51.610;6.928;2022-09-11T01:59:05;19.17;;;10.93;;
2159;SDS011;1086;51.610;6.928;2022-09-11T02:01:35;22.65;;;10.70;;
2159;SDS011;1086;51.610;6.928;2022-09-11T02:04:04;23.08;;;10.88;;
2159;SDS011;1086;51.610;6.928;2022-09-11T02:07:14;19.38;;;10.23;;
2159;SDS011;1086;51.610;6.928;2022-09-11T02:09:20;19.25;;;10.43;;
2159;SDS011;1086;51.610;6.928;2022-09-11T02:11:48;16.40;;;10.75;;
2159;SDS011;1086;51.610;6.928;2022-09-11T02:14:27;20.67;;;11.63;;
2159;SDS011;1086;51.610;6.928;2022-09-11T02:19:25;19.52;;;11.73;;
2159;SDS011;1086;51.610;6.928;2022-09-11T02:21:51;22.50;;;11.35;;
2159;SDS011;1086;51.610;6.928;2022-09-11T02:24:17;19.52;;;11.10;;
2159;SDS011;1086;51.610;6.928;2022-09-11T02:26:44;20.23;;;10.77;;
2159;SDS011;1086;51.610;6.928;2022-09-11T02:29:11;24.23;;;11.85;;
2159;SDS011;1086;51.610;6.928;2022-09-11T02:31:36;21.13;;;12.15;;
2159;SDS011;1086;51.610;6.928;2022-09-11T02:34:02;23.42;;;13.55;;
2159;SDS011;1086;51.610;6.928;2022-09-11T02:38:59;23.63;;;13.48;;
2159;SDS011;1086;51.610;6.928;2022-09-11T02:41:27;20.42;;;10.63;;
2159;SDS011;1086;51.610;6.928;2022-09-11T02:56:38;21.67;;;12.45;;
2159;SDS011;1086;51.610;6.928;2022-09-11T02:59:06;25.77;;;12.95;;
2159;SDS011;1086;51.610;6.928;2022-09-11T03:01:46;23.25;;;12.60;;
2159;SDS011;1086;51.610;6.928;2022-09-11T03:04:12;24.38;;;13.23;;
2159;SDS011;1086;51.610;6.928;2022-09-11T03:06:39;21.23;;;12.45;;
2159;SDS011;1086;51.610;6.928;2022-09-11T03:09:07;23.20;;;11.90;;
2159;SDS011;1086;51.610;6.928;2022-09-11T03:11:32;23.10;;;12.70;;
2159;SDS011;1086;51.610;6.928;2022-09-11T03:13:58;25.85;;;13.18;;
2159;SDS011;1086;51.610;6.928;2022-09-11T03:16:23;23.50;;;12.37;;
2159;SDS011;1086;51.610;6.928;2022-09-11T03:18:48;25.70;;;12.67;;
2159;SDS011;1086;51.610;6.928;2022-09-11T03:21:13;20.87;;;11.80;;
2159;SDS011;1086;51.610;6.928;2022-09-11T03:23:40;23.35;;;13.02;;
2159;SDS011;1086;51.610;6.928;2022-09-11T03:26:06;22.57;;;12.97;;
2159;SDS011;1086;51.610;6.928;2022-09-11T03:28:31;25.45;;;12.95;;
2159;SDS011;1086;51.610;6.928;2022-09-11T03:30:58;30.55;;;14.57;;
2159;SDS011;1086;51.610;6.928;2022-09-11T03:33:23;24.83;;;13.20;;
2159;SDS011;1086;51.610;6.928;2022-09-11T03:35:48;26.55;;;13.93;;
2159;SDS011;1086;51.610;6.928;2022-09-11T03:38:14;27.10;;;12.53;;
2159;SDS011;1086;51.610;6.928;2022-09-11T03:40:43;25.25;;;12.57;;
2159;SDS011;1086;51.610;6.928;2022-09-11T03:43:09;25.35;;;13.20;;
2159;SDS011;1086;51.610;6.928;2022-09-11T03:45:37;26.60;;;13.60;;
2159;SDS011;1086;51.610;6.928;2022-09-11T03:48:02;25.38;;;13.63;;
2159;SDS011;1086;51.610;6.928;2022-09-11T03:50:28;27.95;;;15.10;;
2159;SDS011;1086;51.610;6.928;2022-09-11T03:52:53;28.77;;;13.80;;
2159;SDS011;1086;51.610;6.928;2022-09-11T03:55:18;31.45;;;14.63;;
2159;SDS011;1086;51.610;6.928;2022-09-11T03:57:44;24.53;;;14.00;;
2159;SDS011;1086;51.610;6.928;2022-09-11T04:00:09;28.35;;;14.23;;
2159;SDS011;1086;51.610;6.928;2022-09-11T04:02:34;26.35;;;13.82;;
2159;SDS011;1086;51.610;6.928;2022-09-11T04:05:00;24.87;;;13.87;;
2159;SDS011;1086;51.610;6.928;2022-09-11T04:07:26;29.65;;;15.10;;
2159;SDS011;1086;51.610;6.928;2022-09-11T04:09:51;28.10;;;14.27;;
2159;SDS011;1086;51.610;6.928;2022-09-11T04:12:16;29.30;;;14.67;;
2159;SDS011;1086;51.610;6.928;2022-09-11T04:14:42;27.02;;;13.57;;
2159;SDS011;1086;51.610;6.928;2022-09-11T04:17:07;26.45;;;13.73;;
2159;SDS011;1086;51.610;6.928;2022-09-11T04:19:33;26.58;;;14.43;;
2159;SDS011;1086;51.610;6.928;2022-09-11T04:21:59;26.85;;;14.80;;
2159;SDS011;1086;51.610;6.928;2022-09-11T04:24:24;28.47;;;14.97;;
2159;SDS011;1086;51.610;6.928;2022-09-11T04:26:49;31.92;;;14.70;;
2159;SDS011;1086;51.610;6.928;2022-09-11T04:29:14;32.33;;;14.20;;
2159;SDS011;1086;51.610;6.928;2022-09-11T04:31:41;32.55;;;15.32;;
2159;SDS011;1086;51.610;6.928;2022-09-11T04:34:07;27.92;;;14.40;;
2159;SDS011;1086;51.610;6.928;2022-09-11T04:36:33;29.10;;;13.15;;
2159;SDS011;1086;51.610;6.928;2022-09-11T04:38:58;29.40;;;14.10;;
2159;SDS011;1086;51.610;6.928;2022-09-11T04:41:24;26.73;;;13.63;;
2159;SDS011;1086;51.610;6.928;2022-09-11T04:43:54;28.63;;;14.38;;
2159;SDS011;1086;51.610;6.928;2022-09-11T04:46:20;25.73;;;14.00;;
2159;SDS011;1086;51.610;6.928;2022-09-11T04:48:46;26.00;;;13.57;;
2159;SDS011;1086;51.610;6.928;2022-09-11T04:51:14;25.08;;;14.18;;
2159;SDS011;1086;51.610;6.928;2022-09-11T04:53:45;30.02;;;14.88;;
2159;SDS011;1086;51.610;6.928;2022-09-11T04:56:10;29.48;;;13.98;;
2159;SDS011;1086;51.610;6.928;2022-09-11T04:58:39;30.40;;;13.77;;
2159;SDS011;1086;51.610;6.928;2022-09-11T05:01:23;27.23;;;14.65;;
2159;SDS011;1086;51.610;6.928;2022-09-11T05:03:49;27.40;;;14.40;;
2159;SDS011;1086;51.610;6.928;2022-09-11T05:06:14;27.70;;;14.83;;
2159;SDS011;1086;51.610;6.928;2022-09-11T05:08:40;31.58;;;14.93;;
2159;SDS011;1086;51.610;6.928;2022-09-11T05:11:15;27.98;;;14.27;;
2159;SDS011;1086;51.610;6.928;2022-09-11T05:13:41;27.13;;;14.77;;
2159;SDS011;1086;51.610;6.928;2022-09-11T05:16:10;29.35;;;14.98;;
2159;SDS011;1086;51.610;6.928;2022-09-11T05:18:36;27.90;;;14.77;;
2159;SDS011;1086;51.610;6.928;2022-09-11T05:21:02;27.27;;;14.85;;
2159;SDS011;1086;51.610;6.928;2022-09-11T05:23:28;27.95;;;14.88;;
2159;SDS011;1086;51.610;6.928;2022-09-11T05:25:57;26.33;;;14.30;;
2159;SDS011;1086;51.610;6.928;2022-09-11T05:28:23;29.00;;;14.70;;
2159;SDS011;1086;51.610;6.928;2022-09-11T05:30:48;29.27;;;14.88;;
2159;SDS011;1086;51.610;6.928;2022-09-11T05:33:13;26.30;;;14.05;;
2159;SDS011;1086;51.610;6.928;2022-09-11T05:35:39;27.87;;;14.30;;
2159;SDS011;1086;51.610;6.928;2022-09-11T05:38:04;28.08;;;14.38;;
2159;SDS011;1086;51.610;6.928;2022-09-11T05:40:30;27.65;;;14.85;;
2159;SDS011;1086;51.610;6.928;2022-09-11T05:42:55;30.10;;;15.65;;
2159;SDS011;1086;51.610;6.928;2022-09-11T05:45:21;26.63;;;13.07;;
2159;SDS011;1086;51.610;6.928;2022-09-11T05:47:46;27.75;;;14.60;;
2159;SDS011;1086;51.610;6.928;2022-09-11T05:50:11;27.75;;;14.55;;
2159;SDS011;1086;51.610;6.928;2022-09-11T05:52:36;24.08;;;13.90;;
2159;SDS011;1086;51.610;6.928;2022-09-11T05:55:05;30.60;;;14.90;;
2159;SDS011;1086;51.610;6.928;2022-09-11T05:57:30;26.88;;;13.95;;
2159;SDS011;1086;51.610;6.928;2022-09-11T05:59:56;28.47;;;13.40;;
2159;SDS011;1086;51.610;6.928;2022-09-11T06:02:21;30.43;;;15.07;;
2159;SDS011;1086;51.610;6.928;2022-09-11T06:04:46;24.25;;;13.52;;
2159;SDS011;1086;51.610;6.928;2022-09-11T06:07:11;24.47;;;13.80;;
2159;SDS011;1086;51.610;6.928;2022-09-11T06:09:37;25.88;;;12.98;;
2159;SDS011;1086;51.610;6.928;2022-09-11T06:12:02;26.77;;;13.33;;
2159;SDS011;1086;51.610;6.928;2022-09-11T06:14:27;24.30;;;13.55;;
2159;SDS011;1086;51.610;6.928;2022-09-11T06:16:53;22.83;;;13.27;;
2159;SDS011;1086;51.610;6.928;2022-09-11T06:19:21;25.52;;;13.25;;
2159;SDS011;1086;51.610;6.928;2022-09-11T06:21:46;25.13;;;12.93;;
2159;SDS011;1086;51.610;6.928;2022-09-11T06:24:13;26.63;;;14.13;;
2159;SDS011;1086;51.610;6.928;2022-09-11T06:26:38;25.20;;;12.43;;
2159;SDS011;1086;51.610;6.928;2022-09-11T06:29:03;23.37;;;12.43;;
2159;SDS011;1086;51.610;6.928;2022-09-11T06:31:28;22.17;;;11.80;;
2159;SDS011;1086;51.610;6.928;2022-09-11T06:33:54;22.10;;;12.73;;
2159;SDS011;1086;51.610;6.928;2022-09-11T06:36:20;17.75;;;11.15;;
2159;SDS011;1086;51.610;6.928;2022-09-11T06:38:50;20.98;;;11.45;;
2159;SDS011;1086;51.610;6.928;2022-09-11T06:41:15;21.25;;;12.73;;
2159;SDS011;1086;51.610;6.928;2022-09-11T06:43:41;22.13;;;12.20;;
2159;SDS011;1086;51.610;6.928;2022-09-11T06:46:10;21.92;;;12.13;;
2159;SDS011;1086;51.610;6.928;2022-09-11T06:48:39;18.88;;;11.40;;
2159;SDS011;1086;51.610;6.928;2022-09-11T06:51:05;18.15;;;10.40;;
2159;SDS011;1086;51.610;6.928;2022-09-11T06:53:31;22.20;;;11.43;;
2159;SDS011;1086;51.610;6.928;2022-09-11T06:56:03;20.10;;;10.07;;
2159;SDS011;1086;51.610;6.928;2022-09-11T06:58:28;20.58;;;10.73;;
2159;SDS011;1086;51.610;6.928;2022-09-11T07:01:03;18.13;;;10.82;;
2159;SDS011;1086;51.610;6.928;2022-09-11T07:03:28;17.92;;;10.50;;
2159;SDS011;1086;51.610;6.928;2022-09-11T07:05:54;18.67;;;10.43;;
2159;SDS011;1086;51.610;6.928;2022-09-11T07:08:19;17.03;;;10.07;;
2159;SDS011;1086;51.610;6.928;2022-09-11T07:10:44;20.63;;;11.70;;
2159;SDS011;1086;51.610;6.928;2022-09-11T07:13:10;22.17;;;12.00;;
2159;SDS011;1086;51.610;6.928;2022-09-11T07:15:35;23.95;;;12.07;;
2159;SDS011;1086;51.610;6.928;2022-09-11T07:18:00;19.87;;;11.47;;
2159;SDS011;1086;51.610;6.928;2022-09-11T07:20:26;19.73;;;11.45;;
2159;SDS011;1086;51.610;6.928;2022-09-11T07:22:51;19.42;;;11.75;;
2159;SDS011;1086;51.610;6.928;2022-09-11T07:25:16;21.92;;;11.30;;
2159;SDS011;1086;51.610;6.928;2022-09-11T07:27:42;19.45;;;10.95;;
2159;SDS011;1086;51.610;6.928;2022-09-11T07:30:08;22.40;;;11.55;;
2159;SDS011;1086;51.610;6.928;2022-09-11T07:32:33;21.70;;;11.98;;
2159;SDS011;1086;51.610;6.928;2022-09-11T07:34:59;19.97;;;11.30;;
2159;SDS011;1086;51.610;6.928;2022-09-11T07:37:26;21.13;;;12.02;;
2159;SDS011;1086;51.610;6.928;2022-09-11T07:39:51;21.05;;;10.55;;
2159;SDS011;1086;51.610;6.928;2022-09-11T07:42:16;18.20;;;10.73;;
2159;SDS011;1086;51.610;6.928;2022-09-11T07:44:42;21.48;;;11.10;;
2159;SDS011;1086;51.610;6.928;2022-09-11T07:47:08;21.77;;;11.65;;
2159;SDS011;1086;51.610;6.928;2022-09-11T07:49:33;20.60;;;11.27;;
2159;SDS011;1086;51.610;6.928;2022-09-11T07:51:58;19.63;;;10.57;;
2159;SDS011;1086;51.610;6.928;2022-09-11T07:54:23;18.65;;;10.98;;
2159;SDS011;1086;51.610;6.928;2022-09-11T07:56:51;20.30;;;11.30;;
2159;SDS011;1086;51.610;6.928;2022-09-11T07:59:16;18.77;;;10.13;;
2159;SDS011;1086;51.610;6.928;2022-09-11T08:01:42;16.83;;;10.18;;
2159;SDS011;1086;51.610;6.928;2022-09-11T08:04:10;21.52;;;11.48;;
2159;SDS011;1086;51.610;6.928;2022-09-11T08:06:36;16.48;;;9.93;;
2159;SDS011;1086;51.610;6.928;2022-09-11T08:09:03;17.92;;;10.07;;
2159;SDS011;1086;51.610;6.928;2022-09-11T08:11:29;16.42;;;10.13;;
2159;SDS011;1086;51.610;6.928;2022-09-11T08:13:55;15.10;;;9.63;;
2159;SDS011;1086;51.610;6.928;2022-09-11T08:16:22;19.00;;;10.27;;
2159;SDS011;1086;51.610;6.928;2022-09-11T08:18:47;14.48;;;8.50;;
2159;SDS011;1086;51.610;6.928;2022-09-11T08:21:13;14.25;;;9.10;;
2159;SDS011;1086;51.610;6.928;2022-09-11T08:23:39;14.55;;;9.13;;
2159;SDS011;1086;51.610;6.928;2022-09-11T08:28:30;16.50;;;9.63;;
2159;SDS011;1086;51.610;6.928;2022-09-11T08:30:58;16.95;;;9.60;;
2159;SDS011;1086;51.610;6.928;2022-09-11T08:33:24;17.63;;;10.32;;
2159;SDS011;1086;51.610;6.928;2022-09-11T08:35:49;17.73;;;10.35;;
2159;SDS011;1086;51.610;6.928;2022-09-11T08:38:14;17.27;;;10.20;;
2159;SDS011;1086;51.610;6.928;2022-09-11T08:40:40;15.73;;;9.27;;
2159;SDS011;1086;51.610;6.928;2022-09-11T08:43:05;19.90;;;11.10;;
2159;SDS011;1086;51.610;6.928;2022-09-11T08:45:32;18.77;;;10.10;;
2159;SDS011;1086;51.610;6.928;2022-09-11T08:47:58;15.85;;;10.20;;
2159;SDS011;1086;51.610;6.928;2022-09-11T08:50:34;15.48;;;9.48;;
2159;SDS011;1086;51.610;6.928;2022-09-11T08:53:00;20.23;;;10.30;;
2159;SDS011;1086;51.610;6.928;2022-09-11T08:55:29;17.27;;;10.07;;
2159;SDS011;1086;51.610;6.928;2022-09-11T08:58:00;25.55;;;10.18;;
2159;SDS011;1086;51.610;6.928;2022-09-11T09:00:29;17.15;;;9.55;;
2159;SDS011;1086;51.610;6.928;2022-09-11T09:06:03;18.02;;;9.63;;
2159;SDS011;1086;51.610;6.928;2022-09-11T09:21:38;19.13;;;10.88;;
2159;SDS011;1086;51.610;6.928;2022-09-11T09:24:08;18.70;;;9.07;;
2159;SDS011;1086;51.610;6.928;2022-09-11T09:26:43;18.75;;;9.35;;
2159;SDS011;1086;51.610;6.928;2022-09-11T09:29:12;18.00;;;9.45;;
2159;SDS011;1086;51.610;6.928;2022-09-11T09:31:38;16.38;;;9.27;;
2159;SDS011;1086;51.610;6.928;2022-09-11T09:34:06;14.68;;;9.52;;
2159;SDS011;1086;51.610;6.928;2022-09-11T09:36:45;17.45;;;9.88;;
2159;SDS011;1086;51.610;6.928;2022-09-11T09:39:13;17.33;;;10.57;;
2159;SDS011;1086;51.610;6.928;2022-09-11T09:41:52;16.05;;;9.32;;
2159;SDS011;1086;51.610;6.928;2022-09-11T09:46:50;20.67;;;10.05;;
2159;SDS011;1086;51.610;6.928;2022-09-11T09:49:18;18.48;;;10.00;;
2159;SDS011;1086;51.610;6.928;2022-09-11T09:51:46;17.67;;;10.20;;
2159;SDS011;1086;51.610;6.928;2022-09-11T09:54:15;18.80;;;10.07;;
2159;SDS011;1086;51.610;6.928;2022-09-11T09:56:55;18.88;;;9.63;;
2159;SDS011;1086;51.610;6.928;2022-09-11T09:59:22;17.08;;;10.57;;
2159;SDS011;1086;51.610;6.928;2022-09-11T10:01:50;18.33;;;10.23;;
2159;SDS011;1086;51.610;6.928;2022-09-11T10:06:42;18.50;;;10.23;;
2159;SDS011;1086;51.610;6.928;2022-09-11T10:09:23;17.80;;;10.23;;
2159;SDS011;1086;51.610;6.928;2022-09-11T10:11:52;19.30;;;10.43;;
2159;SDS011;1086;51.610;6.928;2022-09-11T10:14:20;19.80;;;10.55;;
2159;SDS011;1086;51.610;6.928;2022-09-11T10:16:48;18.60;;;9.73;;
2159;SDS011;1086;51.610;6.928;2022-09-11T10:19:34;19.88;;;10.43;;
2159;SDS011;1086;51.610;6.928;2022-09-11T10:24:43;15.85;;;9.30;;
2159;SDS011;1086;51.610;6.928;2022-09-11T10:27:09;18.17;;;9.82;;
2159;SDS011;1086;51.610;6.928;2022-09-11T10:29:36;19.48;;;10.40;;
2159;SDS011;1086;51.610;6.928;2022-09-11T10:32:01;21.35;;;9.65;;
2159;SDS011;1086;51.610;6.928;2022-09-11T10:34:33;16.90;;;9.02;;
2159;SDS011;1086;51.610;6.928;2022-09-11T10:37:00;16.33;;;9.20;;
2159;SDS011;1086;51.610;6.928;2022-09-11T10:39:26;18.30;;;9.77;;
2159;SDS011;1086;51.610;6.928;2022-09-11T10:41:53;18.42;;;9.90;;
2159;SDS011;1086;51.610;6.928;2022-09-11T10:44:18;18.60;;;9.68;;
2159;SDS011;1086;51.610;6.928;2022-09-11T10:46:47;16.10;;;9.07;;
2159;SDS011;1086;51.610;6.928;2022-09-11T10:49:25;15.65;;;10.05;;
2159;SDS011;1086;51.610;6.928;2022-09-11T10:52:01;18.23;;;10.10;;
2159;SDS011;1086;51.610;6.928;2022-09-11T10:59:19;18.83;;;10.52;;
2159;SDS011;1086;51.610;6.928;2022-09-11T11:01:46;17.10;;;9.68;;
2159;SDS011;1086;51.610;6.928;2022-09-11T11:04:12;16.98;;;9.45;;
2159;SDS011;1086;51.610;6.928;2022-09-11T11:06:47;19.45;;;10.07;;
2159;SDS011;1086;51.610;6.928;2022-09-11T11:25:41;17.67;;;10.02;;
2159;SDS011;1086;51.610;6.928;2022-09-11T11:35:23;15.90;;;9.88;;
2159;SDS011;1086;51.610;6.928;2022-09-11T11:37:54;18.33;;;9.77;;
2159;SDS011;1086;51.610;6.928;2022-09-11T11:43:10;18.67;;;9.50;;
2159;SDS011;1086;51.610;6.928;2022-09-11T11:45:38;17.95;;;9.88;;
2159;SDS011;1086;51.610;6.928;2022-09-11T11:48:07;15.73;;;9.55;;
2159;SDS011;1086;51.610;6.928;2022-09-11T11:55:37;15.80;;;9.27;;
2159;SDS011;1086;51.610;6.928;2022-09-11T12:00:49;16.92;;;9.50;;
2159;SDS011;1086;51.610;6.928;2022-09-11T12:03:17;17.02;;;8.82;;
2159;SDS011;1086;51.610;6.928;2022-09-11T12:05:45;14.82;;;9.07;;
2159;SDS011;1086;51.610;6.928;2022-09-11T12:08:14;16.27;;;8.82;;
2159;SDS011;1086;51.610;6.928;2022-09-11T12:10:42;15.07;;;8.70;;
2159;SDS011;1086;51.610;6.928;2022-09-11T12:13:12;19.05;;;9.20;;
2159;SDS011;1086;51.610;6.928;2022-09-11T12:15:37;14.15;;;8.27;;
2159;SDS011;1086;51.610;6.928;2022-09-11T12:18:16;13.32;;;7.95;;
2159;SDS011;1086;51.610;6.928;2022-09-11T12:20:45;14.65;;;8.48;;
2159;SDS011;1086;51.610;6.928;2022-09-11T12:28:32;16.80;;;9.57;;
2159;SDS011;1086;51.610;6.928;2022-09-11T12:31:09;16.63;;;9.45;;
2159;SDS011;1086;51.610;6.928;2022-09-11T12:36:08;17.88;;;9.20;;
2159;SDS011;1086;51.610;6.928;2022-09-11T12:38:41;15.45;;;8.93;;
2159;SDS011;1086;51.610;6.928;2022-09-11T12:41:11;16.88;;;8.00;;
2159;SDS011;1086;51.610;6.928;2022-09-11T12:46:08;12.73;;;7.97;;
2159;SDS011;1086;51.610;6.928;2022-09-11T12:48:44;17.10;;;8.82;;
2159;SDS011;1086;51.610;6.928;2022-09-11T12:53:46;14.85;;;7.82;;
2159;SDS011;1086;51.610;6.928;2022-09-11T12:56:15;15.70;;;8.20;;
2159;SDS011;1086;51.610;6.928;2022-09-11T12:58:43;16.92;;;8.70;;
2159;SDS011;1086;51.610;6.928;2022-09-11T13:03:37;14.35;;;8.02;;
2159;SDS011;1086;51.610;6.928;2022-09-11T13:06:05;17.65;;;8.15;;
2159;SDS011;1086;51.610;6.928;2022-09-11T13:08:53;15.43;;;9.27;;
2159;SDS011;1086;51.610;6.928;2022-09-11T13:11:50;15.05;;;8.73;;
2159;SDS011;1086;51.610;6.928;2022-09-11T13:16:52;18.27;;;6.95;;
2159;SDS011;1086;51.610;6.928;2022-09-11T13:19:18;16.35;;;9.70;;
2159;SDS011;1086;51.610;6.928;2022-09-11T13:21:44;14.75;;;8.70;;
2159;SDS011;1086;51.610;6.928;2022-09-11T13:24:27;19.00;;;10.10;;
2159;SDS011;1086;51.610;6.928;2022-09-11T13:26:54;17.48;;;9.88;;
2159;SDS011;1086;51.610;6.928;2022-09-11T13:29:24;14.00;;;8.50;;
2159;SDS011;1086;51.610;6.928;2022-09-11T13:31:50;19.00;;;10.43;;
2159;SDS011;1086;51.610;6.928;2022-09-11T13:34:16;17.10;;;9.90;;
2159;SDS011;1086;51.610;6.928;2022-09-11T13:36:42;16.67;;;9.68;;
2159;SDS011;1086;51.610;6.928;2022-09-11T13:39:08;15.32;;;8.88;;
2159;SDS011;1086;51.610;6.928;2022-09-11T13:41:35;19.58;;;10.88;;
2159;SDS011;1086;51.610;6.928;2022-09-11T13:44:02;15.75;;;9.93;;
2159;SDS011;1086;51.610;6.928;2022-09-11T13:46:30;17.42;;;9.90;;
2159;SDS011;1086;51.610;6.928;2022-09-11T13:48:57;18.50;;;10.55;;
2159;SDS011;1086;51.610;6.928;2022-09-11T13:51:28;21.08;;;11.38;;
2159;SDS011;1086;51.610;6.928;2022-09-11T13:54:00;17.42;;;10.20;;
2159;SDS011;1086;51.610;6.928;2022-09-11T13:56:35;21.65;;;11.40;;
2159;SDS011;1086;51.610;6.928;2022-09-11T13:59:23;16.48;;;9.45;;
2159;SDS011;1086;51.610;6.928;2022-09-11T14:01:55;17.17;;;14.98;;
2159;SDS011;1086;51.610;6.928;2022-09-11T14:04:24;18.10;;;9.93;;
2159;SDS011;1086;51.610;6.928;2022-09-11T14:06:51;14.65;;;8.63;;
2159;SDS011;1086;51.610;6.928;2022-09-11T14:09:17;15.13;;;9.83;;
2159;SDS011;1086;51.610;6.928;2022-09-11T14:11:43;14.60;;;9.00;;
2159;SDS011;1086;51.610;6.928;2022-09-11T14:14:12;12.57;;;9.18;;
2159;SDS011;1086;51.610;6.928;2022-09-11T14:19:11;16.08;;;9.85;;
2159;SDS011;1086;51.610;6.928;2022-09-11T14:21:41;11.27;;;7.28;;
2159;SDS011;1086;51.610;6.928;2022-09-11T14:24:24;13.60;;;8.93;;
2159;SDS011;1086;51.610;6.928;2022-09-11T14:26:49;10.93;;;7.38;;
2159;SDS011;1086;51.610;6.928;2022-09-11T14:29:22;12.05;;;7.53;;
2159;SDS011;1086;51.610;6.928;2022-09-11T14:31:48;11.48;;;8.23;;
2159;SDS011;1086;51.610;6.928;2022-09-11T14:34:24;10.50;;;8.02;;
2159;SDS011;1086;51.610;6.928;2022-09-11T14:36:56;10.77;;;8.10;;
2159;SDS011;1086;51.610;6.928;2022-09-11T14:39:42;12.75;;;8.23;;
2159;SDS011;1086;51.610;6.928;2022-09-11T14:42:08;9.15;;;6.88;;
2159;SDS011;1086;51.610;6.928;2022-09-11T14:44:36;9.07;;;6.18;;
2159;SDS011;1086;51.610;6.928;2022-09-11T14:47:03;9.23;;;6.40;;
2159;SDS011;1086;51.610;6.928;2022-09-11T14:49:29;8.70;;;6.47;;
2159;SDS011;1086;51.610;6.928;2022-09-11T14:51:55;9.50;;;7.30;;
2159;SDS011;1086;51.610;6.928;2022-09-11T14:54:22;11.55;;;8.30;;
2159;SDS011;1086;51.610;6.928;2022-09-11T14:56:48;10.00;;;7.32;;
2159;SDS011;1086;51.610;6.928;2022-09-11T14:59:13;9.67;;;7.00;;
2159;SDS011;1086;51.610;6.928;2022-09-11T15:01:38;6.40;;;5.15;;
2159;SDS011;1086;51.610;6.928;2022-09-11T15:04:04;5.60;;;4.20;;
2159;SDS011;1086;51.610;6.928;2022-09-11T15:06:29;5.93;;;4.57;;
2159;SDS011;1086;51.610;6.928;2022-09-11T15:08:58;6.68;;;5.32;;
2159;SDS011;1086;51.610;6.928;2022-09-11T15:11:25;7.32;;;4.97;;
2159;SDS011;1086;51.610;6.928;2022-09-11T15:13:50;7.68;;;5.75;;
2159;SDS011;1086;51.610;6.928;2022-09-11T15:16:15;9.13;;;6.17;;
2159;SDS011;1086;51.610;6.928;2022-09-11T15:18:41;7.40;;;5.27;;
2159;SDS011;1086;51.610;6.928;2022-09-11T15:21:06;9.73;;;5.83;;
2159;SDS011;1086;51.610;6.928;2022-09-11T15:23:31;6.78;;;5.40;;
2159;SDS011;1086;51.610;6.928;2022-09-11T15:26:00;6.95;;;5.43;;
2159;SDS011;1086;51.610;6.928;2022-09-11T15:28:29;8.02;;;5.13;;
2159;SDS011;1086;51.610;6.928;2022-09-11T15:30:55;9.18;;;6.43;;
2159;SDS011;1086;51.610;6.928;2022-09-11T15:33:23;6.30;;;4.80;;
2159;SDS011;1086;51.610;6.928;2022-09-11T15:35:48;8.48;;;5.20;;
2159;SDS011;1086;51.610;6.928;2022-09-11T15:38:13;6.65;;;5.25;;
2159;SDS011;1086;51.610;6.928;2022-09-11T15:40:39;7.53;;;5.27;;
2159;SDS011;1086;51.610;6.928;2022-09-11T15:43:04;8.33;;;5.10;;
2159;SDS011;1086;51.610;6.928;2022-09-11T15:45:29;6.82;;;5.00;;
2159;SDS011;1086;51.610;6.928;2022-09-11T15:47:56;10.45;;;5.28;;
2159;SDS011;1086;51.610;6.928;2022-09-11T15:50:23;7.25;;;4.75;;
2159;SDS011;1086;51.610;6.928;2022-09-11T15:52:52;7.35;;;4.95;;
2159;SDS011;1086;51.610;6.928;2022-09-11T15:55:17;6.27;;;4.97;;
2159;SDS011;1086;51.610;6.928;2022-09-11T15:57:42;8.40;;;5.93;;
2159;SDS011;1086;51.610;6.928;2022-09-11T16:00:08;12.32;;;7.38;;
2159;SDS011;1086;51.610;6.928;2022-09-11T16:02:34;11.57;;;6.90;;
2159;SDS011;1086;51.610;6.928;2022-09-11T16:04:59;9.65;;;5.97;;
2159;SDS011;1086;51.610;6.928;2022-09-11T16:07:25;8.60;;;6.47;;
2159;SDS011;1086;51.610;6.928;2022-09-11T16:09:50;9.50;;;5.93;;
2159;SDS011;1086;51.610;6.928;2022-09-11T16:12:16;9.15;;;6.13;;
2159;SDS011;1086;51.610;6.928;2022-09-11T16:14:41;10.43;;;6.17;;
2159;SDS011;1086;51.610;6.928;2022-09-11T16:17:07;9.25;;;5.88;;
2159;SDS011;1086;51.610;6.928;2022-09-11T16:19:33;10.85;;;6.32;;
2159;SDS011;1086;51.610;6.928;2022-09-11T16:21:59;5.68;;;4.47;;
2159;SDS011;1086;51.610;6.928;2022-09-11T16:24:25;7.53;;;4.75;;
2159;SDS011;1086;51.610;6.928;2022-09-11T16:26:51;8.35;;;4.43;;
2159;SDS011;1086;51.610;6.928;2022-09-11T16:29:20;9.68;;;4.35;;
2159;SDS011;1086;51.610;6.928;2022-09-11T16:31:46;8.13;;;4.63;;
2159;SDS011;1086;51.610;6.928;2022-09-11T16:34:12;10.68;;;4.78;;
2159;SDS011;1086;51.610;6.928;2022-09-11T16:36:39;7.53;;;4.88;;
2159;SDS011;1086;51.610;6.928;2022-09-11T16:39:06;6.88;;;5.13;;
2159;SDS011;1086;51.610;6.928;2022-09-11T16:41:32;7.28;;;4.90;;
2159;SDS011;1086;51.610;6.928;2022-09-11T16:44:00;8.27;;;5.38;;
2159;SDS011;1086;51.610;6.928;2022-09-11T16:46:26;7.32;;;4.88;;
2159;SDS011;1086;51.610;6.928;2022-09-11T16:48:51;7.53;;;4.70;;
2159;SDS011;1086;51.610;6.928;2022-09-11T16:51:17;6.10;;;4.28;;
2159;SDS011;1086;51.610;6.928;2022-09-11T16:53:44;6.05;;;3.83;;
2159;SDS011;1086;51.610;6.928;2022-09-11T16:56:11;6.47;;;4.45;;
2159;SDS011;1086;51.610;6.928;2022-09-11T16:58:36;9.13;;;4.80;;